createdAt,value
2022-12-11T00:00:08.126Z,100176.53
2022-12-11T00:02:34.885Z,100171.38
2022-12-11T00:05:01.559Z,100179.25
2022-12-11T00:07:28.171Z,100176.72
2022-12-11T00:09:54.719Z,100179.31
2022-12-11T00:12:21.365Z,100172.25
2022-12-11T00:14:47.966Z,100180.97
2022-12-11T00:17:14.689Z,100173.16
2022-12-11T00:19:41.286Z,100168.84
2022-12-11T00:22:08.311Z,100172.41
2022-12-11T00:24:34.857Z,100162.09
2022-12-11T00:27:01.502Z,100164.69
2022-12-11T00:29:28.082Z,100167.41
2022-12-11T00:31:54.726Z,100165.66
2022-12-11T00:34:21.427Z,100156.88
2022-12-11T00:36:48.086Z,100157.72
2022-12-11T00:39:15.859Z,100144.63
2022-12-11T00:41:43.563Z,100149.00
2022-12-11T00:44:10.277Z,100155.91
2022-12-11T00:46:36.885Z,100156.75
2022-12-11T00:49:03.513Z,100146.19
2022-12-11T00:51:30.078Z,100160.97
2022-12-11T00:53:56.731Z,100152.25
2022-12-11T00:56:23.566Z,100161.91
2022-12-11T00:58:50.196Z,100163.69
2022-12-11T01:01:23.278Z,100167.03
2022-12-11T01:03:52.484Z,100164.38
2022-12-11T01:06:22.050Z,100161.72
2022-12-11T01:09:09.236Z,100172.06
2022-12-11T01:11:36.105Z,100171.16
2022-12-11T01:14:02.762Z,100170.22
2022-12-11T01:16:29.584Z,100168.44
2022-12-11T01:18:57.248Z,100167.53
2022-12-11T01:21:24.085Z,100170.22
2022-12-11T01:23:51.531Z,100172.00
2022-12-11T01:26:18.631Z,100176.38
2022-12-11T01:28:45.245Z,100180.78
2022-12-11T01:31:14.339Z,100181.66
2022-12-11T01:33:41.286Z,100176.38
2022-12-11T01:36:10.873Z,100172.91
2022-12-11T01:38:37.769Z,100174.63
2022-12-11T01:41:04.413Z,100174.56
2022-12-11T01:43:31.328Z,100173.66
2022-12-11T01:45:58.021Z,100170.09
2022-12-11T01:48:28.595Z,100168.31
2022-12-11T01:50:58.021Z,100169.91
2022-12-11T01:53:33.387Z,100169.00
2022-12-11T01:56:00.894Z,100169.81
2022-12-11T01:58:42.010Z,100174.16
2022-12-11T02:01:14.979Z,100167.09
2022-12-11T02:03:41.617Z,100174.91
2022-12-11T02:06:31.126Z,100170.53
2022-12-11T02:08:57.946Z,100164.50
2022-12-11T02:11:34.172Z,100164.50
2022-12-11T02:14:24.796Z,100164.38
2022-12-11T02:16:59.237Z,100174.63
2022-12-11T02:19:43.745Z,100170.19
2022-12-11T02:22:18.016Z,100170.03
2022-12-11T02:25:04.337Z,100166.56
2022-12-11T02:27:45.885Z,100170.81
2022-12-11T02:30:16.086Z,100179.31
2022-12-11T02:32:53.513Z,100164.38
2022-12-11T02:35:28.425Z,100166.84
2022-12-11T02:38:00.609Z,100169.47
2022-12-11T02:40:31.561Z,100172.00
2022-12-11T02:43:02.579Z,100164.13
2022-12-11T02:45:30.249Z,100168.38
2022-12-11T02:47:59.950Z,100162.25
2022-12-11T02:50:28.439Z,100168.38
2022-12-11T02:52:57.553Z,100167.59
2022-12-11T02:55:27.534Z,100156.44
2022-12-11T02:58:02.000Z,100161.72
2022-12-11T03:00:28.576Z,100154.69
2022-12-11T03:02:55.427Z,100157.97
2022-12-11T03:05:22.002Z,100156.16
2022-12-11T03:07:49.421Z,100157.81
2022-12-11T03:10:19.005Z,100161.25
2022-12-11T03:12:53.419Z,100155.13
2022-12-11T03:15:24.024Z,100158.63
2022-12-11T03:18:01.307Z,100160.34
2022-12-11T03:20:41.076Z,100154.19
2022-12-11T03:23:11.877Z,100146.31
2022-12-11T03:25:59.259Z,100146.91
2022-12-11T03:28:42.230Z,100154.47
2022-12-11T03:31:14.576Z,100152.56
2022-12-11T03:33:45.993Z,100153.28
2022-12-11T03:36:19.056Z,100157.53
2022-12-11T03:38:56.554Z,100157.53
2022-12-11T03:41:26.191Z,100156.50
2022-12-11T03:43:56.570Z,100149.53
2022-12-11T03:46:29.905Z,100153.03
2022-12-11T03:49:01.737Z,100151.38
2022-12-11T03:51:31.461Z,100144.53
2022-12-11T03:53:59.766Z,100142.81
2022-12-11T03:56:29.279Z,100141.84
2022-12-11T03:58:55.961Z,100146.16
2022-12-11T04:01:22.641Z,100146.09
2022-12-11T04:03:49.385Z,100139.94
2022-12-11T04:06:16.002Z,100145.06
2022-12-11T04:08:42.547Z,100146.72
2022-12-11T04:11:28.619Z,100145.75
2022-12-11T04:14:13.875Z,100143.97
2022-12-11T04:16:40.433Z,100149.06
2022-12-11T04:19:25.641Z,100149.88
2022-12-11T04:22:10.661Z,100148.91
2022-12-11T04:24:37.240Z,100155.00
2022-12-11T04:27:03.802Z,100147.94
2022-12-11T04:29:30.324Z,100144.47
2022-12-11T04:31:57.127Z,100146.22
2022-12-11T04:34:23.700Z,100147.13
2022-12-11T04:36:50.723Z,100141.94
2022-12-11T04:39:17.323Z,100147.00
2022-12-11T04:41:44.063Z,100138.97
2022-12-11T04:44:10.639Z,100141.50
2022-12-11T04:46:37.199Z,100130.97
2022-12-11T04:49:03.880Z,100128.38
2022-12-11T04:51:30.792Z,100127.34
2022-12-11T04:53:58.705Z,100129.94
2022-12-11T04:56:25.254Z,100131.78
2022-12-11T04:58:51.879Z,100135.41
2022-12-11T05:01:23.265Z,100130.22
2022-12-11T05:03:49.925Z,100137.22
2022-12-11T05:06:16.716Z,100136.31
2022-12-11T05:08:43.947Z,100134.50
2022-12-11T05:11:14.075Z,100139.72
2022-12-11T05:13:40.857Z,100137.28
2022-12-11T05:16:10.227Z,100139.88
2022-12-11T05:18:37.417Z,100135.56
2022-12-11T05:21:07.249Z,100137.41
2022-12-11T05:23:34.256Z,100133.22
2022-12-11T05:26:04.117Z,100129.72
2022-12-11T05:28:33.169Z,100128.84
2022-12-11T05:31:02.534Z,100128.03
2022-12-11T05:33:29.733Z,100128.97
2022-12-11T05:35:56.677Z,100128.09
2022-12-11T05:38:23.971Z,100117.69
2022-12-11T05:41:05.877Z,100120.22
2022-12-11T05:43:35.655Z,100120.16
2022-12-11T05:46:09.702Z,100122.56
2022-12-11T05:48:37.245Z,100125.00
2022-12-11T05:51:04.673Z,100134.50
2022-12-11T05:53:31.633Z,100132.81
2022-12-11T05:56:07.026Z,100122.56
2022-12-11T05:58:34.657Z,100117.44
2022-12-11T06:01:01.676Z,100127.97
2022-12-11T06:03:28.290Z,100125.47
2022-12-11T06:05:54.884Z,100125.59
2022-12-11T06:08:21.507Z,100122.22
2022-12-11T06:10:49.406Z,100115.31
2022-12-11T06:13:16.781Z,100120.63
2022-12-11T06:15:43.476Z,100116.31
2022-12-11T06:18:10.720Z,100123.28
2022-12-11T06:20:37.649Z,100123.28
2022-12-11T06:23:04.209Z,100120.63
2022-12-11T06:25:31.442Z,100128.38
2022-12-11T06:27:59.212Z,100134.41
2022-12-11T06:30:37.522Z,100118.69
2022-12-11T06:33:06.670Z,100126.59
2022-12-11T06:35:38.730Z,100129.94
2022-12-11T06:38:08.771Z,100133.38
2022-12-11T06:40:35.460Z,100134.25
2022-12-11T06:43:02.042Z,100129.88
2022-12-11T06:45:28.672Z,100130.84
2022-12-11T06:47:55.662Z,100128.25
2022-12-11T06:50:22.226Z,100128.25
2022-12-11T06:52:48.807Z,100131.66
2022-12-11T06:55:15.502Z,100132.56
2022-12-11T06:57:42.140Z,100130.84
2022-12-11T07:00:09.483Z,100137.00
2022-12-11T07:02:36.073Z,100143.09
2022-12-11T07:05:03.173Z,100137.81
2022-12-11T07:07:30.286Z,100133.38
2022-12-11T07:09:56.859Z,100146.28
2022-12-11T07:12:23.563Z,100137.53
2022-12-11T07:14:50.104Z,100142.59
2022-12-11T07:17:16.720Z,100146.09
2022-12-11T07:19:43.274Z,100152.22
2022-12-11T07:22:10.012Z,100151.38
2022-12-11T07:24:36.684Z,100148.72
2022-12-11T07:27:04.232Z,100147.81
2022-12-11T07:29:30.755Z,100156.50
2022-12-11T07:31:57.397Z,100161.72
2022-12-11T07:34:24.066Z,100160.81
2022-12-11T07:36:50.618Z,100145.13
2022-12-11T07:39:17.270Z,100148.56
2022-12-11T07:41:43.806Z,100153.56
2022-12-11T07:44:10.931Z,100153.41
2022-12-11T07:46:37.718Z,100154.28
2022-12-11T07:49:06.351Z,100155.31
2022-12-11T07:51:35.979Z,100158.00
2022-12-11T07:54:08.587Z,100153.69
2022-12-11T07:56:35.274Z,100149.50
2022-12-11T07:59:03.784Z,100147.88
2022-12-11T08:01:33.413Z,100143.50
2022-12-11T08:04:00.466Z,100144.31
2022-12-11T08:06:32.359Z,100138.97
2022-12-11T08:09:00.283Z,100140.78
2022-12-11T08:11:27.990Z,100143.16
2022-12-11T08:13:55.211Z,100137.53
2022-12-11T08:16:22.424Z,100137.03
2022-12-11T08:18:49.332Z,100141.88
2022-12-11T08:21:18.896Z,100130.28
2022-12-11T08:23:46.055Z,100138.69
2022-12-11T08:26:21.833Z,100133.88
2022-12-11T08:28:48.407Z,100148.28
2022-12-11T08:31:15.905Z,100151.41
2022-12-11T08:33:42.677Z,100137.31
2022-12-11T08:36:11.742Z,100138.88
2022-12-11T08:38:38.995Z,100136.09
2022-12-11T08:41:09.808Z,100141.94
2022-12-11T08:43:36.302Z,100139.94
2022-12-11T08:46:02.954Z,100135.38
2022-12-11T08:48:29.675Z,100134.22
2022-12-11T08:51:00.301Z,100137.34
2022-12-11T08:53:28.742Z,100131.03
2022-12-11T08:56:00.309Z,100130.88
2022-12-11T08:58:26.963Z,100132.50
2022-12-11T09:00:53.580Z,100137.63
2022-12-11T09:03:20.044Z,100131.53
2022-12-11T09:05:46.604Z,100135.13
2022-12-11T09:08:13.123Z,100136.09
2022-12-11T09:10:39.723Z,100136.22
2022-12-11T09:13:06.316Z,100141.88
2022-12-11T09:15:32.789Z,100138.09
2022-12-11T09:17:59.333Z,100134.16
2022-12-11T09:20:25.843Z,100139.59
2022-12-11T09:22:52.289Z,100138.03
2022-12-11T09:25:19.144Z,100147.59
2022-12-11T09:27:45.633Z,100137.06
2022-12-11T09:30:12.790Z,100130.09
2022-12-11T09:32:39.590Z,100136.16
2022-12-11T09:35:06.821Z,100132.84
2022-12-11T09:37:34.399Z,100123.34
2022-12-11T09:40:07.059Z,100132.84
2022-12-11T09:42:45.395Z,100120.69
2022-12-11T09:45:16.009Z,100118.94
2022-12-11T09:47:50.072Z,100110.34
2022-12-11T09:50:25.161Z,100113.81
2022-12-11T09:53:11.474Z,100110.44
2022-12-11T09:56:15.845Z,100104.47
2022-12-11T09:59:04.192Z,100103.72
2022-12-11T10:02:03.422Z,100102.09
2022-12-11T10:04:59.211Z,100103.81
2022-12-11T10:07:34.625Z,100106.47
2022-12-11T10:10:33.785Z,100105.66
2022-12-11T10:13:38.034Z,100109.06
2022-12-11T10:16:07.586Z,100104.69
2022-12-11T10:18:34.603Z,100100.34
2022-12-11T10:21:02.858Z,100101.97
2022-12-11T10:23:36.127Z,100100.16
2022-12-11T10:26:16.654Z,100097.63
2022-12-11T10:28:43.193Z,100092.44
2022-12-11T10:31:20.096Z,100090.75
2022-12-11T10:33:56.618Z,100086.50
2022-12-11T10:36:31.487Z,100083.84
2022-12-11T10:38:58.359Z,100083.91
2022-12-11T10:41:36.679Z,100095.94
2022-12-11T10:44:18.064Z,100085.47
2022-12-11T10:46:46.762Z,100088.06
2022-12-11T10:49:28.896Z,100089.84
2022-12-11T10:52:00.088Z,100094.16
2022-12-11T10:54:38.468Z,100091.56
2022-12-11T10:57:08.781Z,100091.56
2022-12-11T10:59:45.709Z,100088.16
2022-12-11T11:02:32.786Z,100089.09
2022-12-11T11:05:10.545Z,100089.09
2022-12-11T11:07:37.619Z,100085.69
2022-12-11T11:10:16.995Z,100084.88
2022-12-11T11:12:46.762Z,100090.88
2022-12-11T11:15:19.524Z,100084.75
2022-12-11T11:17:55.762Z,100079.63
2022-12-11T11:20:26.519Z,100082.22
2022-12-11T11:22:57.895Z,100083.09
2022-12-11T11:25:27.510Z,100075.44
2022-12-11T11:28:19.476Z,100076.31
2022-12-11T11:30:57.236Z,100076.41
2022-12-11T11:33:24.247Z,100068.69
2022-12-11T11:36:22.098Z,100066.16
2022-12-11T11:39:08.098Z,100063.56
2022-12-11T11:41:49.846Z,100060.97
2022-12-11T11:44:25.327Z,100060.13
2022-12-11T11:47:00.705Z,100068.81
2022-12-11T11:50:03.807Z,100074.91
2022-12-11T11:52:45.776Z,100063.69
2022-12-11T11:55:22.709Z,100067.31
2022-12-11T11:58:00.873Z,100064.81
2022-12-11T12:00:33.690Z,100064.94
2022-12-11T12:03:29.909Z,100063.38
2022-12-11T12:06:27.278Z,100066.09
2022-12-11T12:08:59.857Z,100077.53
2022-12-11T12:12:03.790Z,100067.38
2022-12-11T12:14:52.821Z,100066.69
2022-12-11T12:17:38.145Z,100061.63
2022-12-11T12:20:27.365Z,100061.75
2022-12-11T12:23:05.174Z,100062.78
2022-12-11T12:25:31.748Z,100049.84
2022-12-11T12:28:32.515Z,100060.34
2022-12-11T12:31:22.633Z,100050.88
2022-12-11T12:34:01.403Z,100045.81
2022-12-11T12:36:38.632Z,100050.19
2022-12-11T12:39:43.865Z,100046.84
2022-12-11T12:42:38.166Z,100041.69
2022-12-11T12:45:23.878Z,100030.47
2022-12-11T12:47:53.516Z,100035.75
2022-12-11T12:50:24.130Z,100026.16
2022-12-11T12:52:53.294Z,100028.81
2022-12-11T12:55:22.977Z,100031.53
2022-12-11T12:58:00.333Z,100021.13
2022-12-11T13:00:41.861Z,100021.13
2022-12-11T13:03:29.244Z,100017.69
2022-12-11T13:06:03.933Z,100011.63
2022-12-11T13:08:52.559Z,100009.94
2022-12-11T13:11:30.012Z,100012.59
2022-12-11T13:14:06.431Z,100003.09
2022-12-11T13:16:39.325Z,100004.84
2022-12-11T13:19:39.152Z,99997.16
2022-12-11T13:22:14.943Z,99998.00
2022-12-11T13:24:48.180Z,99994.59
2022-12-11T13:27:40.131Z,99994.44
2022-12-11T13:30:08.528Z,99999.53
2022-12-11T13:32:35.342Z,100003.78
2022-12-11T13:35:07.209Z,100002.81
2022-12-11T13:37:38.622Z,100016.59
2022-12-11T13:40:27.735Z,100011.34
2022-12-11T13:43:04.079Z,100007.84
2022-12-11T13:45:49.583Z,100012.97
2022-12-11T13:48:25.730Z,100010.38
2022-12-11T13:50:54.578Z,100016.38
2022-12-11T13:53:22.479Z,100022.53
2022-12-11T13:56:04.949Z,100013.84
2022-12-11T13:58:35.697Z,100014.00
2022-12-11T14:01:16.187Z,100020.06
2022-12-11T14:03:55.278Z,100016.38
2022-12-11T14:06:22.946Z,100024.06
2022-12-11T14:08:53.289Z,100026.53
2022-12-11T14:11:29.682Z,100026.38
2022-12-11T14:13:59.786Z,100025.34
2022-12-11T14:16:27.651Z,100037.31
2022-12-11T14:18:59.479Z,100048.41
2022-12-11T14:21:26.439Z,100050.88
2022-12-11T14:23:56.119Z,100049.91
2022-12-11T14:26:25.567Z,100046.34
2022-12-11T14:28:52.905Z,100049.78
2022-12-11T14:31:30.527Z,100047.13
2022-12-11T14:34:11.840Z,100047.91
2022-12-11T14:36:39.340Z,100048.88
2022-12-11T14:39:13.052Z,100045.31
2022-12-11T14:41:55.547Z,100055.72
2022-12-11T14:44:24.272Z,100057.56
2022-12-11T14:46:57.512Z,100055.94
2022-12-11T14:49:29.472Z,100046.50
2022-12-11T14:51:58.363Z,100047.25
2022-12-11T14:54:36.415Z,100042.94
2022-12-11T14:57:06.575Z,100045.47
2022-12-11T14:59:41.284Z,100047.97
2022-12-11T15:02:33.396Z,100054.84
2022-12-11T15:05:07.844Z,100056.63
2022-12-11T15:07:34.539Z,100060.25
2022-12-11T15:10:04.037Z,100062.09
2022-12-11T15:12:31.750Z,100050.31
2022-12-11T15:15:06.353Z,100059.38
2022-12-11T15:17:37.204Z,100054.59
2022-12-11T15:20:11.609Z,100052.22
2022-12-11T15:22:43.239Z,100057.66
2022-12-11T15:25:22.580Z,100059.66
2022-12-11T15:28:01.951Z,100063.25
2022-12-11T15:30:31.916Z,100062.66
2022-12-11T15:33:10.458Z,100056.88
2022-12-11T15:35:38.645Z,100054.41
2022-12-11T15:38:05.598Z,100065.88
2022-12-11T15:40:32.331Z,100068.66
2022-12-11T15:43:02.213Z,100073.16
2022-12-11T15:45:29.006Z,100069.03
2022-12-11T15:47:56.192Z,100070.06
2022-12-11T15:50:28.541Z,100065.88
2022-12-11T15:52:56.662Z,100059.03
2022-12-11T15:55:27.341Z,100065.19
2022-12-11T15:58:01.081Z,100079.16
2022-12-11T16:00:28.203Z,100067.97
2022-12-11T16:02:55.787Z,100062.88
2022-12-11T16:05:22.815Z,100063.84
2022-12-11T16:07:54.706Z,100069.09
2022-12-11T16:10:22.090Z,100073.63
2022-12-11T16:12:48.716Z,100071.22
2022-12-11T16:15:22.769Z,100074.91
2022-12-11T16:17:50.365Z,100075.91
2022-12-11T16:20:17.215Z,100070.78
2022-12-11T16:22:43.712Z,100072.63
2022-12-11T16:25:11.120Z,100072.69
2022-12-11T16:27:37.914Z,100065.88
2022-12-11T16:30:05.089Z,100063.34
2022-12-11T16:32:31.707Z,100070.41
2022-12-11T16:35:01.115Z,100066.16
2022-12-11T16:37:28.235Z,100067.22
2022-12-11T16:39:54.847Z,100069.06
2022-12-11T16:42:21.421Z,100070.13
2022-12-11T16:44:48.422Z,100066.75
2022-12-11T16:47:14.969Z,100066.88
2022-12-11T16:49:43.083Z,100074.75
2022-12-11T16:52:09.595Z,100072.22
2022-12-11T16:54:36.202Z,100074.75
2022-12-11T16:57:02.705Z,100069.53
2022-12-11T16:59:35.176Z,100076.47
2022-12-11T17:02:03.996Z,100080.72
2022-12-11T17:04:30.505Z,100074.50
2022-12-11T17:06:57.004Z,100077.00
2022-12-11T17:09:23.605Z,100076.94
2022-12-11T17:11:50.140Z,100075.94
2022-12-11T17:14:16.642Z,100081.88
2022-12-11T17:16:44.401Z,100074.78
2022-12-11T17:19:11.194Z,100079.03
2022-12-11T17:21:37.865Z,100084.19
2022-12-11T17:24:04.746Z,100084.97
2022-12-11T17:26:31.280Z,100081.50
2022-12-11T17:28:57.936Z,100080.81
2022-12-11T17:31:24.830Z,100083.59
2022-12-11T17:33:53.671Z,100079.41
2022-12-11T17:36:21.714Z,100072.53
2022-12-11T17:38:49.778Z,100077.75
2022-12-11T17:41:20.331Z,100081.25
2022-12-11T17:43:49.256Z,100075.16
2022-12-11T17:46:15.889Z,100076.78
2022-12-11T17:48:43.021Z,100081.06
2022-12-11T17:51:12.641Z,100082.63
2022-12-11T17:53:40.169Z,100078.16
2022-12-11T17:56:08.205Z,100072.84
2022-12-11T17:58:35.420Z,100075.28
2022-12-11T18:01:07.143Z,100078.59
2022-12-11T18:03:35.166Z,100074.06
2022-12-11T18:06:19.920Z,100078.25
2022-12-11T18:08:46.665Z,100074.69
2022-12-11T18:11:16.371Z,100078.19
2022-12-11T18:13:44.234Z,100079.09
2022-12-11T18:16:17.344Z,100082.72
2022-12-11T18:18:46.207Z,100082.09
2022-12-11T18:21:19.894Z,100083.03
2022-12-11T18:23:46.596Z,100077.84
2022-12-11T18:26:14.702Z,100077.00
2022-12-11T18:28:42.246Z,100085.66
2022-12-11T18:31:09.779Z,100081.25
2022-12-11T18:33:38.509Z,100082.91
2022-12-11T18:36:06.110Z,100078.41
2022-12-11T18:38:33.721Z,100083.47
2022-12-11T18:41:09.452Z,100079.78
2022-12-11T18:43:36.958Z,100080.38
2022-12-11T18:46:08.730Z,100080.88
2022-12-11T18:48:35.813Z,100079.56
2022-12-11T18:51:08.041Z,100075.00
2022-12-11T18:53:35.859Z,100082.63
2022-12-11T18:56:10.721Z,100078.09
2022-12-11T18:58:37.956Z,100082.34
2022-12-11T19:01:10.056Z,100080.44
2022-12-11T19:03:37.460Z,100077.69
2022-12-11T19:06:13.501Z,100076.47
2022-12-11T19:08:40.521Z,100081.41
2022-12-11T19:11:08.128Z,100083.00
2022-12-11T19:13:35.477Z,100086.41
2022-12-11T19:16:02.737Z,100089.00
2022-12-11T19:18:29.464Z,100084.69
2022-12-11T19:21:04.879Z,100083.78
2022-12-11T19:23:35.314Z,100082.78
2022-12-11T19:26:02.555Z,100076.47
2022-12-11T19:28:29.452Z,100090.84
2022-12-11T19:30:56.710Z,100086.84
2022-12-11T19:33:23.637Z,100089.94
2022-12-11T19:35:59.850Z,100092.09
2022-12-11T19:38:26.807Z,100088.22
2022-12-11T19:40:54.223Z,100092.06
2022-12-11T19:43:21.216Z,100094.16
2022-12-11T19:45:48.392Z,100087.72
2022-12-11T19:48:14.902Z,100089.94
2022-12-11T19:50:41.636Z,100093.06
2022-12-11T19:53:08.594Z,100086.69
2022-12-11T19:55:35.374Z,100088.16
2022-12-11T19:58:01.993Z,100084.44
2022-12-11T20:00:28.853Z,100091.13
2022-12-11T20:02:55.584Z,100077.75
2022-12-11T20:05:23.362Z,100075.66
2022-12-11T20:07:49.983Z,100073.66
2022-12-11T20:10:16.853Z,100075.22
2022-12-11T20:12:43.469Z,100079.28
2022-12-11T20:15:11.532Z,100075.50
2022-12-11T20:17:43.336Z,100075.19
2022-12-11T20:20:11.512Z,100080.06
2022-12-11T20:22:38.301Z,100077.25
2022-12-11T20:25:05.215Z,100074.41
2022-12-11T20:27:31.704Z,100069.97
2022-12-11T20:29:58.336Z,100071.66
2022-12-11T20:32:25.817Z,100078.31
2022-12-11T20:34:56.416Z,100072.00
2022-12-11T20:37:26.069Z,100070.06
2022-12-11T20:39:52.984Z,100074.19
2022-12-11T20:42:20.003Z,100073.16
2022-12-11T20:44:49.214Z,100083.44
2022-12-11T20:47:19.745Z,100084.16
2022-12-11T20:49:48.046Z,100088.38
2022-12-11T20:52:14.797Z,100081.25
2022-12-11T20:54:41.731Z,100087.06
2022-12-11T20:57:08.328Z,100088.53
2022-12-11T20:59:35.025Z,100090.16
2022-12-11T21:02:01.689Z,100083.91
2022-12-11T21:04:28.509Z,100090.63
2022-12-11T21:06:55.360Z,100091.19
2022-12-11T21:09:25.360Z,100088.38
2022-12-11T21:11:52.979Z,100085.53
2022-12-11T21:14:20.180Z,100095.81
2022-12-11T21:16:47.516Z,100091.25
2022-12-11T21:19:20.201Z,100089.50
2022-12-11T21:21:47.536Z,100090.13
2022-12-11T21:24:19.114Z,100095.06
2022-12-11T21:26:47.128Z,100088.66
2022-12-11T21:29:15.071Z,100097.16
2022-12-11T21:31:42.905Z,100095.13
2022-12-11T21:34:09.571Z,100099.31
2022-12-11T21:36:36.215Z,100100.84
2022-12-11T21:39:04.314Z,100100.84
2022-12-11T21:41:30.910Z,100097.19
2022-12-11T21:46:44.586Z,100095.31
2022-12-11T21:49:12.001Z,100098.53
2022-12-11T21:51:46.816Z,100088.94
2022-12-11T21:54:17.057Z,100094.72
2022-12-11T21:56:44.516Z,100085.97
2022-12-11T21:59:11.324Z,100088.41
2022-12-11T22:01:41.982Z,100090.03
2022-12-11T22:04:10.068Z,100090.72
2022-12-11T22:06:37.368Z,100094.84
2022-12-11T22:09:05.508Z,100098.94
2022-12-11T22:11:33.766Z,100106.72
2022-12-11T22:14:01.333Z,100102.28
2022-12-11T22:16:27.939Z,100090.75
2022-12-11T22:18:54.778Z,100098.44
2022-12-11T22:21:21.650Z,100099.25
2022-12-11T22:23:48.289Z,100101.84
2022-12-11T22:26:19.256Z,100102.63
2022-12-11T22:28:45.882Z,100095.50
2022-12-11T22:31:17.370Z,100101.47
2022-12-11T22:33:44.449Z,100094.63
2022-12-11T22:36:11.459Z,100096.13
2022-12-11T22:38:39.288Z,100091.59
2022-12-11T22:41:18.978Z,100096.66
2022-12-11T22:43:48.929Z,100103.63
2022-12-11T22:46:17.980Z,100097.28
2022-12-11T22:48:44.732Z,100096.13
2022-12-11T22:51:11.726Z,100093.34
2022-12-11T22:53:38.345Z,100102.91
2022-12-11T22:56:06.232Z,100103.81
2022-12-11T22:58:32.980Z,100100.50
2022-12-11T23:00:59.992Z,100100.78
2022-12-11T23:03:26.821Z,100097.56
2022-12-11T23:05:54.801Z,100106.56
2022-12-11T23:08:21.661Z,100106.81
2022-12-11T23:10:50.073Z,100100.94
2022-12-11T23:13:16.750Z,100104.66
2022-12-11T23:15:43.381Z,100103.06
2022-12-11T23:18:09.916Z,100104.88
2022-12-11T23:20:36.753Z,100105.72
2022-12-11T23:23:03.305Z,100107.34
2022-12-11T23:25:29.960Z,100101.09
2022-12-11T23:27:56.585Z,100103.59
2022-12-11T23:30:23.958Z,100104.34
2022-12-11T23:32:50.690Z,100106.72
2022-12-11T23:35:17.371Z,100111.81
2022-12-11T23:37:43.916Z,100109.78
2022-12-11T23:40:11.177Z,100106.81
2022-12-11T23:42:37.953Z,100104.88
2022-12-11T23:45:05.021Z,100102.91
2022-12-11T23:47:31.888Z,100107.91
2022-12-11T23:49:58.423Z,100099.88
2022-12-11T23:52:26.566Z,100100.59
2022-12-11T23:54:55.324Z,100103.97
2022-12-11T23:57:23.067Z,100102.91
2022-12-11T23:59:49.787Z,100098.44
